createdAt,value
2018-12-30T00:00:07.420Z,3.20
2018-12-30T00:02:34.149Z,3.23
2018-12-30T00:05:01.607Z,3.10
2018-12-30T00:07:28.632Z,3.73
2018-12-30T00:09:55.360Z,3.83
2018-12-30T00:12:22.087Z,2.83
2018-12-30T00:14:48.813Z,3.47
2018-12-30T00:17:15.627Z,3.57
2018-12-30T00:19:42.766Z,3.60
2018-12-30T00:22:09.581Z,3.33
2018-12-30T00:24:36.411Z,3.50
2018-12-30T00:27:03.124Z,3.70
2018-12-30T00:29:29.951Z,3.33
2018-12-30T00:31:56.691Z,3.33
2018-12-30T00:34:23.495Z,3.90
2018-12-30T00:36:50.338Z,3.70
2018-12-30T00:39:17.057Z,3.30
2018-12-30T00:41:43.784Z,4.17
2018-12-30T00:44:10.500Z,3.77
2018-12-30T00:46:37.480Z,3.27
2018-12-30T00:49:04.320Z,3.40
2018-12-30T00:51:31.046Z,3.30
2018-12-30T00:53:58.884Z,4.07
2018-12-30T00:56:25.624Z,3.07
2018-12-30T00:58:52.343Z,3.23
2018-12-30T01:01:19.056Z,3.30
2018-12-30T01:03:47.093Z,3.40
2018-12-30T01:06:14.105Z,3.37
2018-12-30T01:08:40.820Z,3.37
2018-12-30T01:11:07.662Z,3.47
2018-12-30T01:13:34.375Z,3.53
2018-12-30T01:16:01.296Z,3.63
2018-12-30T01:18:28.039Z,3.10
2018-12-30T01:20:54.752Z,3.10
2018-12-30T01:23:21.460Z,2.93
2018-12-30T01:25:48.192Z,3.30
2018-12-30T01:28:34.540Z,3.03
2018-12-30T01:31:01.256Z,3.00
2018-12-30T01:33:28.403Z,3.40
2018-12-30T01:35:55.111Z,2.50
2018-12-30T01:38:22.127Z,2.50
2018-12-30T01:40:48.847Z,2.80
2018-12-30T01:43:15.576Z,3.13
2018-12-30T01:45:42.283Z,3.03
2018-12-30T01:48:08.987Z,3.30
2018-12-30T01:50:35.711Z,2.87
2018-12-30T01:53:03.124Z,2.77
2018-12-30T01:55:29.836Z,2.80
2018-12-30T01:57:56.556Z,3.57
2018-12-30T02:00:23.276Z,2.67
2018-12-30T02:02:50.041Z,3.00
2018-12-30T02:05:16.773Z,2.80
2018-12-30T02:07:43.489Z,3.00
2018-12-30T02:10:10.615Z,2.80
2018-12-30T02:12:37.331Z,2.93
2018-12-30T02:15:04.176Z,2.93
2018-12-30T02:17:30.887Z,3.40
2018-12-30T02:19:57.597Z,3.30
2018-12-30T02:22:24.320Z,3.27
2018-12-30T02:24:51.264Z,3.33
2018-12-30T02:27:17.999Z,3.43
2018-12-30T02:29:44.747Z,3.23
2018-12-30T02:32:11.535Z,2.97
2018-12-30T02:34:38.248Z,3.00
2018-12-30T02:37:04.958Z,2.97
2018-12-30T02:39:31.692Z,3.20
2018-12-30T02:41:58.406Z,3.00
2018-12-30T02:44:25.133Z,2.60
2018-12-30T02:46:51.862Z,3.60
2018-12-30T02:49:18.571Z,2.90
2018-12-30T02:51:50.212Z,2.83
2018-12-30T02:54:13.914Z,3.00
2018-12-30T02:56:40.635Z,3.20
2018-12-30T02:59:07.368Z,2.13
2018-12-30T03:01:34.076Z,2.63
2018-12-30T03:04:00.789Z,3.13
2018-12-30T03:06:27.809Z,2.80
2018-12-30T03:08:54.516Z,2.83
2018-12-30T03:11:21.240Z,2.70
2018-12-30T03:13:47.948Z,3.10
2018-12-30T03:16:14.673Z,2.90
2018-12-30T03:18:41.423Z,3.13
2018-12-30T03:21:08.146Z,3.07
2018-12-30T03:23:34.869Z,3.47
2018-12-30T03:26:01.763Z,2.90
2018-12-30T03:28:28.488Z,3.07
2018-12-30T03:30:55.214Z,2.60
2018-12-30T03:33:21.987Z,2.97
2018-12-30T03:35:48.736Z,3.03
2018-12-30T03:38:15.445Z,2.70
2018-12-30T03:40:42.172Z,2.33
2018-12-30T03:43:08.993Z,2.70
2018-12-30T03:45:35.712Z,2.60
2018-12-30T03:48:02.445Z,3.47
2018-12-30T03:50:29.172Z,2.87
2018-12-30T03:52:56.003Z,4.20
2018-12-30T03:55:22.721Z,2.70
2018-12-30T03:57:49.452Z,2.50
2018-12-30T04:00:16.172Z,2.97
2018-12-30T04:02:42.887Z,3.10
2018-12-30T04:05:09.615Z,3.07
2018-12-30T04:07:36.619Z,3.00
2018-12-30T04:10:04.023Z,2.70
2018-12-30T04:12:30.742Z,2.80
2018-12-30T04:14:57.469Z,2.77
2018-12-30T04:17:24.200Z,2.53
2018-12-30T04:19:50.921Z,2.73
2018-12-30T04:22:17.646Z,2.30
2018-12-30T04:24:44.375Z,2.30
2018-12-30T04:27:11.100Z,2.23
2018-12-30T04:29:37.883Z,2.07
2018-12-30T04:32:04.652Z,2.23
2018-12-30T04:34:31.387Z,2.87
2018-12-30T04:36:58.111Z,2.77
2018-12-30T04:39:24.815Z,2.23
2018-12-30T04:41:51.539Z,2.37
2018-12-30T04:44:18.261Z,2.63
2018-12-30T04:46:44.991Z,2.40
2018-12-30T04:49:11.715Z,2.20
2018-12-30T04:51:38.560Z,2.60
2018-12-30T04:54:05.296Z,2.07
2018-12-30T04:56:32.009Z,2.50
2018-12-30T04:58:58.740Z,2.20
2018-12-30T05:01:25.461Z,2.60
2018-12-30T05:03:52.184Z,2.67
2018-12-30T05:06:18.904Z,2.20
2018-12-30T05:08:45.620Z,2.77
2018-12-30T05:11:12.332Z,2.33
2018-12-30T05:13:39.070Z,2.97
2018-12-30T05:16:05.776Z,2.50
2018-12-30T05:18:32.503Z,2.70
2018-12-30T05:20:59.293Z,3.27
2018-12-30T05:23:26.007Z,2.47
2018-12-30T05:25:52.731Z,2.53
2018-12-30T05:28:19.452Z,2.77
2018-12-30T05:30:46.168Z,2.50
2018-12-30T05:33:12.888Z,2.33
2018-12-30T05:35:39.604Z,2.80
2018-12-30T05:38:06.318Z,2.97
2018-12-30T05:40:33.088Z,2.60
2018-12-30T05:42:59.808Z,2.30
2018-12-30T05:45:26.529Z,2.97
2018-12-30T05:47:53.243Z,3.03
2018-12-30T05:50:20.109Z,3.23
2018-12-30T05:52:46.853Z,2.63
2018-12-30T05:55:13.565Z,3.13
2018-12-30T05:57:40.312Z,2.50
2018-12-30T06:00:07.388Z,2.87
2018-12-30T06:02:34.160Z,2.63
2018-12-30T06:05:00.884Z,2.53
2018-12-30T06:07:27.605Z,2.43
2018-12-30T06:09:54.480Z,3.17
2018-12-30T06:12:21.211Z,2.77
2018-12-30T06:14:47.989Z,2.50
2018-12-30T06:17:14.723Z,2.63
2018-12-30T06:19:41.432Z,2.90
2018-12-30T06:22:08.151Z,2.17
2018-12-30T06:24:34.869Z,2.50
2018-12-30T06:27:01.709Z,2.20
2018-12-30T06:29:28.432Z,2.60
2018-12-30T06:31:55.143Z,2.77
2018-12-30T06:34:21.856Z,2.87
2018-12-30T06:37:08.209Z,2.93
2018-12-30T06:40:11.456Z,2.17
2018-12-30T06:42:36.536Z,2.50
2018-12-30T06:45:03.548Z,2.60
2018-12-30T06:47:30.267Z,2.93
2018-12-30T06:49:57.022Z,2.63
2018-12-30T06:52:23.734Z,2.90
2018-12-30T06:54:50.445Z,2.67
2018-12-30T06:57:17.159Z,2.60
2018-12-30T06:59:43.891Z,2.70
2018-12-30T07:02:10.617Z,2.40
2018-12-30T07:04:37.324Z,2.40
2018-12-30T07:07:04.418Z,2.90
2018-12-30T07:09:31.223Z,2.53
2018-12-30T07:11:57.924Z,2.63
2018-12-30T07:14:24.659Z,3.03
2018-12-30T07:16:51.380Z,2.53
2018-12-30T07:19:18.101Z,2.80
2018-12-30T07:21:45.121Z,2.70
2018-12-30T07:24:11.836Z,2.30
2018-12-30T07:26:38.561Z,2.60
2018-12-30T07:29:05.280Z,2.60
2018-12-30T07:31:32.288Z,2.50
2018-12-30T07:33:59.000Z,2.70
2018-12-30T07:36:25.722Z,2.90
2018-12-30T07:38:54.149Z,3.13
2018-12-30T07:41:21.105Z,2.93
2018-12-30T07:43:47.832Z,2.93
2018-12-30T07:46:14.536Z,3.20
2018-12-30T07:48:41.240Z,2.70
2018-12-30T07:51:07.956Z,3.13
2018-12-30T07:53:34.678Z,2.90
2018-12-30T07:56:01.393Z,3.03
2018-12-30T07:58:28.119Z,3.73
2018-12-30T08:00:54.831Z,3.00
2018-12-30T08:03:21.860Z,2.67
2018-12-30T08:05:48.924Z,2.77
2018-12-30T08:08:15.749Z,3.30
2018-12-30T08:10:42.464Z,3.65
2018-12-30T08:13:09.177Z,3.47
2018-12-30T08:15:35.892Z,3.10
2018-12-30T08:18:02.616Z,2.70
2018-12-30T08:20:29.341Z,2.83
2018-12-30T08:22:56.055Z,2.97
2018-12-30T08:25:22.907Z,3.27
2018-12-30T08:27:49.667Z,3.20
2018-12-30T08:30:17.041Z,3.23
2018-12-30T08:32:43.872Z,3.30
2018-12-30T08:35:11.025Z,3.13
2018-12-30T08:37:57.616Z,2.80
2018-12-30T08:40:24.335Z,3.03
2018-12-30T08:42:51.063Z,3.07
2018-12-30T08:45:17.772Z,3.40
2018-12-30T08:47:44.501Z,2.90
2018-12-30T08:50:11.223Z,2.93
2018-12-30T08:52:37.952Z,2.47
2018-12-30T08:55:04.872Z,3.10
2018-12-30T08:57:31.609Z,3.13
2018-12-30T08:59:58.321Z,3.00
2018-12-30T09:02:25.141Z,2.97
2018-12-30T09:04:52.209Z,3.50
2018-12-30T09:07:18.920Z,3.40
2018-12-30T09:09:45.740Z,3.30
2018-12-30T09:12:12.444Z,3.50
2018-12-30T09:14:39.420Z,3.30
2018-12-30T09:17:06.236Z,3.97
2018-12-30T09:19:32.952Z,3.97
2018-12-30T09:21:59.672Z,3.73
2018-12-30T09:24:26.403Z,3.10
2018-12-30T09:26:53.155Z,4.03
2018-12-30T09:29:19.944Z,3.37
2018-12-30T09:31:46.667Z,3.90
2018-12-30T09:34:13.385Z,3.50
2018-12-30T09:36:40.122Z,4.03
2018-12-30T09:39:06.968Z,3.93
2018-12-30T09:41:33.699Z,3.73
2018-12-30T09:44:00.413Z,3.80
2018-12-30T09:46:27.124Z,3.97
2018-12-30T09:48:53.845Z,4.07
2018-12-30T09:51:20.577Z,4.33
2018-12-30T09:53:47.303Z,4.37
2018-12-30T09:56:14.024Z,4.80
2018-12-30T09:58:40.731Z,4.87
2018-12-30T10:01:07.452Z,4.33
2018-12-30T10:03:34.161Z,4.67
2018-12-30T10:06:01.208Z,4.80
2018-12-30T10:08:27.925Z,5.03
2018-12-30T10:10:54.648Z,4.70
2018-12-30T10:13:21.370Z,4.63
2018-12-30T10:15:48.152Z,4.80
2018-12-30T10:18:14.847Z,4.47
2018-12-30T10:20:41.561Z,4.80
2018-12-30T10:23:08.281Z,4.20
2018-12-30T10:25:35.012Z,5.13
2018-12-30T10:28:01.919Z,5.07
2018-12-30T10:30:29.477Z,4.77
2018-12-30T10:32:56.676Z,4.90
2018-12-30T10:35:23.379Z,4.97
2018-12-30T10:37:50.192Z,4.83
2018-12-30T10:40:16.920Z,4.73
2018-12-30T10:42:43.725Z,5.13
2018-12-30T10:45:10.909Z,5.10
2018-12-30T10:47:37.639Z,4.80
2018-12-30T10:50:04.584Z,5.00
2018-12-30T10:52:31.313Z,5.80
2018-12-30T10:54:58.531Z,5.87
2018-12-30T10:57:25.290Z,5.30
2018-12-30T10:59:52.000Z,5.30
2018-12-30T11:02:18.724Z,5.40
2018-12-30T11:04:45.443Z,5.63
2018-12-30T11:07:12.169Z,5.80
2018-12-30T11:09:38.891Z,6.00
2018-12-30T11:12:05.873Z,6.03
2018-12-30T11:14:32.601Z,6.50
2018-12-30T11:16:59.487Z,6.23
2018-12-30T11:19:26.288Z,6.73
2018-12-30T11:21:53.046Z,8.33
2018-12-30T11:24:19.772Z,7.33
2018-12-30T11:26:46.491Z,6.87
2018-12-30T11:29:13.237Z,7.10
2018-12-30T11:31:39.959Z,7.20
2018-12-30T11:34:06.684Z,6.73
2018-12-30T11:36:33.412Z,7.87
2018-12-30T11:39:00.236Z,6.90
2018-12-30T11:41:26.972Z,7.30
2018-12-30T11:43:53.719Z,6.67
2018-12-30T11:46:20.448Z,6.93
2018-12-30T11:48:47.170Z,7.00
2018-12-30T11:51:13.887Z,7.27
2018-12-30T11:53:40.624Z,6.77
2018-12-30T11:56:07.460Z,6.70
2018-12-30T11:58:34.177Z,6.33
2018-12-30T12:01:01.004Z,6.83
2018-12-30T12:03:27.727Z,7.33
2018-12-30T12:05:54.443Z,7.20
2018-12-30T12:08:21.211Z,6.30
2018-12-30T12:10:47.924Z,6.97
2018-12-30T12:13:14.662Z,6.50
2018-12-30T12:15:41.624Z,7.07
2018-12-30T12:18:08.384Z,6.70
2018-12-30T12:20:35.136Z,7.17
2018-12-30T12:23:01.934Z,6.47
2018-12-30T12:25:28.651Z,7.17
2018-12-30T12:27:55.377Z,7.00
2018-12-30T12:30:22.565Z,7.43
2018-12-30T12:32:49.272Z,6.30
2018-12-30T12:35:16.026Z,7.70
2018-12-30T12:37:42.744Z,6.93
2018-12-30T12:40:09.459Z,6.70
2018-12-30T12:42:36.171Z,7.60
2018-12-30T12:45:03.704Z,7.00
2018-12-30T12:47:30.420Z,7.73
2018-12-30T12:49:57.139Z,7.50
2018-12-30T12:52:24.277Z,6.80
2018-12-30T12:54:50.991Z,7.77
2018-12-30T12:57:17.712Z,7.67
2018-12-30T12:59:44.415Z,7.83
2018-12-30T13:02:11.128Z,7.67
2018-12-30T13:04:37.843Z,7.90
2018-12-30T13:07:04.552Z,7.57
2018-12-30T13:09:31.404Z,7.90
2018-12-30T13:11:58.225Z,7.43
2018-12-30T13:14:24.936Z,7.07
2018-12-30T13:16:51.671Z,7.27
2018-12-30T13:19:18.368Z,7.60
2018-12-30T13:21:45.084Z,7.30
2018-12-30T13:24:11.800Z,7.27
2018-12-30T13:26:38.521Z,6.73
2018-12-30T13:29:05.323Z,7.20
2018-12-30T13:31:32.054Z,7.77
2018-12-30T13:33:59.014Z,7.37
2018-12-30T13:36:25.740Z,7.27
2018-12-30T13:38:52.468Z,7.75
2018-12-30T13:41:19.188Z,7.30
2018-12-30T13:43:45.897Z,8.07
2018-12-30T13:46:12.620Z,7.37
2018-12-30T13:48:39.343Z,8.30
2018-12-30T13:51:06.160Z,8.00
2018-12-30T13:53:32.899Z,7.70
2018-12-30T13:55:59.716Z,7.90
2018-12-30T13:58:26.435Z,8.20
2018-12-30T14:00:53.144Z,8.30
2018-12-30T14:03:20.244Z,8.67
2018-12-30T14:05:46.963Z,9.23
2018-12-30T14:08:13.927Z,9.30
2018-12-30T14:10:40.634Z,9.43
2018-12-30T14:13:07.340Z,8.53
2018-12-30T14:15:34.068Z,9.47
2018-12-30T14:18:00.784Z,9.20
2018-12-30T14:20:27.495Z,10.27
2018-12-30T14:22:54.333Z,9.60
2018-12-30T14:25:21.047Z,10.80
2018-12-30T14:27:47.753Z,10.07
2018-12-30T14:30:17.699Z,11.00
2018-12-30T14:32:44.507Z,11.00
2018-12-30T14:35:11.275Z,11.07
2018-12-30T14:37:37.972Z,11.20
2018-12-30T14:40:05.393Z,10.73
2018-12-30T14:42:32.128Z,11.20
2018-12-30T14:44:58.845Z,11.10
2018-12-30T14:47:25.567Z,11.90
2018-12-30T14:49:52.304Z,12.53
2018-12-30T14:52:19.019Z,13.70
2018-12-30T14:54:45.864Z,13.17
2018-12-30T14:57:12.632Z,14.40
2018-12-30T14:59:39.362Z,17.07
2018-12-30T15:02:06.092Z,16.77
2018-12-30T15:04:32.834Z,17.43
2018-12-30T15:06:59.571Z,18.13
2018-12-30T15:09:26.593Z,20.47
2018-12-30T15:11:53.436Z,19.67
2018-12-30T15:14:20.172Z,20.40
2018-12-30T15:16:46.911Z,21.93
2018-12-30T15:19:13.638Z,21.30
2018-12-30T15:21:40.620Z,22.70
2018-12-30T15:24:07.363Z,24.30
2018-12-30T15:26:34.136Z,25.83
2018-12-30T15:29:00.876Z,24.90
2018-12-30T15:31:27.588Z,24.57
2018-12-30T15:33:54.311Z,24.87
2018-12-30T15:36:21.040Z,26.70
2018-12-30T15:38:47.772Z,27.20
2018-12-30T15:41:14.501Z,28.37
2018-12-30T15:43:41.227Z,27.37
2018-12-30T15:46:07.959Z,27.03
2018-12-30T15:48:34.676Z,28.53
2018-12-30T15:51:01.500Z,29.33
2018-12-30T15:53:28.219Z,31.03
2018-12-30T15:55:54.960Z,29.97
2018-12-30T15:58:21.699Z,31.10
2018-12-30T16:00:49.233Z,29.60
2018-12-30T16:03:15.999Z,33.63
2018-12-30T16:05:42.723Z,32.47
2018-12-30T16:08:09.492Z,31.80
2018-12-30T16:10:36.217Z,32.77
2018-12-30T16:13:02.941Z,31.97
2018-12-30T16:15:29.667Z,33.07
2018-12-30T16:17:56.389Z,34.90
2018-12-30T16:20:23.124Z,34.97
2018-12-30T16:22:49.907Z,36.03
2018-12-30T16:25:16.645Z,35.50
2018-12-30T16:27:43.384Z,35.57
2018-12-30T16:30:16.899Z,36.73
2018-12-30T16:32:43.676Z,37.37
2018-12-30T16:35:10.404Z,38.87
2018-12-30T16:37:37.135Z,37.13
2018-12-30T16:40:04.536Z,33.97
2018-12-30T16:42:31.239Z,37.73
2018-12-30T16:44:57.947Z,38.73
2018-12-30T16:47:24.678Z,37.33
2018-12-30T16:49:51.387Z,35.00
2018-12-30T16:52:18.109Z,35.60
2018-12-30T16:54:44.853Z,36.63
2018-12-30T16:57:11.567Z,39.33
2018-12-30T16:59:38.283Z,40.33
2018-12-30T17:02:05.097Z,38.77
2018-12-30T17:04:31.855Z,41.67
2018-12-30T17:06:58.581Z,37.27
2018-12-30T17:09:25.784Z,42.60
2018-12-30T17:11:52.569Z,39.63
2018-12-30T17:14:19.324Z,39.53
2018-12-30T17:16:46.047Z,36.00
2018-12-30T17:19:12.783Z,41.03
2018-12-30T17:21:39.574Z,38.20
2018-12-30T17:24:06.403Z,35.00
2018-12-30T17:26:33.131Z,40.60
2018-12-30T17:28:59.852Z,43.17
2018-12-30T17:31:26.587Z,38.67
2018-12-30T17:33:53.324Z,41.83
2018-12-30T17:36:20.168Z,40.43
2018-12-30T17:38:46.896Z,35.67
2018-12-30T17:41:13.620Z,43.20
2018-12-30T17:43:40.415Z,38.73
2018-12-30T17:46:07.150Z,41.23
2018-12-30T17:48:33.875Z,39.90
2018-12-30T17:51:00.600Z,40.27
2018-12-30T17:53:27.783Z,42.53
2018-12-30T17:55:54.825Z,43.40
2018-12-30T17:58:21.556Z,41.00
2018-12-30T18:00:48.279Z,42.70
2018-12-30T18:03:15.344Z,42.73
2018-12-30T18:05:42.187Z,40.20
2018-12-30T18:08:08.925Z,43.70
2018-12-30T18:10:35.648Z,42.50
2018-12-30T18:13:02.464Z,39.27
2018-12-30T18:15:29.308Z,44.30
2018-12-30T18:17:56.048Z,43.73
2018-12-30T18:20:22.785Z,42.73
2018-12-30T18:22:49.496Z,39.03
2018-12-30T18:25:16.520Z,43.70
2018-12-30T18:27:43.257Z,41.60
2018-12-30T18:30:15.924Z,40.60
2018-12-30T18:32:42.656Z,43.90
2018-12-30T18:35:09.588Z,38.63
2018-12-30T18:37:36.324Z,39.53
2018-12-30T18:40:03.773Z,44.90
2018-12-30T18:42:30.496Z,43.63
2018-12-30T18:44:57.223Z,42.00
2018-12-30T18:47:23.947Z,40.07
2018-12-30T18:49:50.684Z,42.47
2018-12-30T18:52:17.524Z,42.20
2018-12-30T18:54:44.267Z,40.77
2018-12-30T18:57:11.240Z,41.20
2018-12-30T18:59:37.960Z,41.70
2018-12-30T19:02:04.694Z,39.53
2018-12-30T19:04:31.416Z,43.40
2018-12-30T19:06:58.600Z,40.47
2018-12-30T19:09:25.316Z,42.37
2018-12-30T19:11:52.056Z,40.47
2018-12-30T19:14:18.785Z,41.60
2018-12-30T19:16:45.514Z,37.87
2018-12-30T19:19:12.232Z,41.93
2018-12-30T19:21:38.952Z,39.47
2018-12-30T19:24:05.687Z,39.40
2018-12-30T19:26:32.649Z,40.33
2018-12-30T19:28:59.374Z,41.03
2018-12-30T19:31:26.396Z,38.47
2018-12-30T19:33:53.149Z,34.00
2018-12-30T19:36:19.881Z,35.90
2018-12-30T19:38:46.598Z,32.83
2018-12-30T19:41:13.323Z,33.80
2018-12-30T19:43:40.057Z,34.87
2018-12-30T19:46:06.818Z,35.10
2018-12-30T19:48:33.537Z,31.10
2018-12-30T19:51:00.266Z,30.83
2018-12-30T19:53:26.975Z,31.87
2018-12-30T19:55:53.693Z,29.57
2018-12-30T19:58:20.422Z,27.57
2018-12-30T20:00:47.145Z,22.93
2018-12-30T20:03:13.868Z,26.13
2018-12-30T20:05:40.611Z,23.23
2018-12-30T20:08:07.348Z,26.40
2018-12-30T20:10:34.079Z,21.90
2018-12-30T20:13:00.795Z,20.73
2018-12-30T20:15:27.624Z,22.23
2018-12-30T20:17:54.347Z,24.47
2018-12-30T20:20:21.064Z,22.83
2018-12-30T20:22:47.800Z,20.97
2018-12-30T20:25:14.511Z,21.63
2018-12-30T20:27:41.236Z,21.40
2018-12-30T20:30:16.386Z,18.40
2018-12-30T20:32:43.103Z,20.67
2018-12-30T20:35:09.825Z,20.70
2018-12-30T20:37:36.567Z,19.07
2018-12-30T20:40:03.944Z,19.87
2018-12-30T20:42:30.656Z,21.70
2018-12-30T20:44:57.380Z,19.20
2018-12-30T20:47:24.115Z,18.70
2018-12-30T20:49:50.883Z,19.07
2018-12-30T20:52:17.608Z,18.53
2018-12-30T20:54:44.340Z,18.73
2018-12-30T20:57:11.067Z,18.90
2018-12-30T20:59:37.807Z,18.27
2018-12-30T21:02:04.540Z,19.07
2018-12-30T21:04:31.251Z,19.13
2018-12-30T21:06:57.962Z,19.10
2018-12-30T21:09:24.687Z,20.73
2018-12-30T21:11:51.407Z,19.30
2018-12-30T21:14:18.119Z,18.03
2018-12-30T21:16:44.844Z,20.47
2018-12-30T21:19:11.560Z,17.77
2018-12-30T21:21:38.325Z,18.07
2018-12-30T21:24:05.143Z,18.80
2018-12-30T21:26:31.868Z,20.37
2018-12-30T21:28:58.591Z,20.80
2018-12-30T21:31:25.320Z,21.90
2018-12-30T21:33:52.437Z,22.23
2018-12-30T21:36:19.155Z,21.50
2018-12-30T21:38:45.892Z,24.20
2018-12-30T21:41:12.736Z,20.23
2018-12-30T21:43:39.828Z,20.70
2018-12-30T21:46:06.556Z,22.60
2018-12-30T21:48:33.414Z,23.20
2018-12-30T21:51:00.143Z,20.93
2018-12-30T21:53:26.857Z,19.80
2018-12-30T21:55:53.585Z,20.70
2018-12-30T21:58:20.407Z,19.80
2018-12-30T22:00:47.136Z,21.67
2018-12-30T22:03:13.880Z,20.23
2018-12-30T22:05:40.604Z,21.60
2018-12-30T22:08:07.604Z,21.20
2018-12-30T22:10:34.324Z,21.57
2018-12-30T22:13:01.528Z,21.30
2018-12-30T22:15:28.251Z,21.93
2018-12-30T22:17:54.976Z,23.50
2018-12-30T22:20:21.793Z,23.17
2018-12-30T22:22:48.523Z,22.47
2018-12-30T22:25:15.351Z,25.83
2018-12-30T22:27:42.092Z,23.23
2018-12-30T22:30:09.021Z,20.77
2018-12-30T22:32:35.756Z,21.47
2018-12-30T22:35:02.700Z,24.77
2018-12-30T22:37:29.431Z,23.67
2018-12-30T22:39:56.255Z,24.30
2018-12-30T22:42:23.434Z,22.53
2018-12-30T22:44:50.153Z,23.13
2018-12-30T22:47:16.868Z,22.90
2018-12-30T22:49:43.579Z,21.23
2018-12-30T22:52:10.305Z,22.80
2018-12-30T22:54:37.020Z,24.00
2018-12-30T22:57:03.762Z,22.27
2018-12-30T22:59:30.491Z,22.53
2018-12-30T23:01:57.204Z,20.90
2018-12-30T23:04:23.931Z,21.20
2018-12-30T23:06:50.653Z,20.77
2018-12-30T23:09:17.379Z,20.23
2018-12-30T23:11:44.120Z,20.40
2018-12-30T23:14:11.152Z,21.17
2018-12-30T23:16:37.876Z,20.60
2018-12-30T23:19:04.616Z,21.57
2018-12-30T23:21:31.333Z,19.03
2018-12-30T23:23:58.066Z,20.43
2018-12-30T23:26:24.780Z,19.40
2018-12-30T23:28:51.506Z,20.80
2018-12-30T23:31:18.227Z,21.00
2018-12-30T23:33:44.943Z,20.00
2018-12-30T23:36:11.679Z,18.20
2018-12-30T23:38:38.493Z,24.03
2018-12-30T23:41:05.204Z,19.13
2018-12-30T23:43:31.901Z,22.77
2018-12-30T23:45:58.621Z,20.63
2018-12-30T23:48:25.348Z,19.40
2018-12-30T23:50:52.057Z,17.80
2018-12-30T23:53:18.783Z,17.37
2018-12-30T23:55:45.516Z,18.97
2018-12-30T23:58:12.243Z,17.30
